sensor_id;sensor_type;location;lat;lon;timestamp;pressure;altitude;pressure_sealevel;temperature;humidity
11987;BME280;6053;51.382;6.768;2023-10-31T00:01:48;99394.75;;;13.24;77.11
11987;BME280;6053;51.382;6.768;2023-10-31T00:04:23;99414.28;;;13.69;74.58
11987;BME280;6053;51.382;6.768;2023-10-31T00:07:02;99415.13;;;13.75;75.88
11987;BME280;6053;51.382;6.768;2023-10-31T00:09:33;99422.78;;;13.46;72.54
11987;BME280;6053;51.382;6.768;2023-10-31T00:12:02;99429.06;;;13.80;74.38
11987;BME280;6053;51.382;6.768;2023-10-31T00:14:33;99430.69;;;13.33;72.86
11987;BME280;6053;51.382;6.768;2023-10-31T00:17:07;99439.31;;;13.06;75.16
11987;BME280;6053;51.382;6.768;2023-10-31T00:19:36;99453.75;;;13.10;75.21
11987;BME280;6053;51.382;6.768;2023-10-31T00:22:10;99450.97;;;13.10;75.69
11987;BME280;6053;51.382;6.768;2023-10-31T00:24:42;99467.78;;;13.89;76.20
11987;BME280;6053;51.382;6.768;2023-10-31T00:27:10;99472.81;;;13.37;76.74
11987;BME280;6053;51.382;6.768;2023-10-31T00:29:49;99484.09;;;13.33;76.80
11987;BME280;6053;51.382;6.768;2023-10-31T00:32:17;99489.41;;;12.88;76.12
11987;BME280;6053;51.382;6.768;2023-10-31T00:34:45;99492.13;;;12.74;74.93
11987;BME280;6053;51.382;6.768;2023-10-31T00:37:18;99504.75;;;13.81;72.92
11987;BME280;6053;51.382;6.768;2023-10-31T00:39:46;99500.72;;;12.76;72.73
11987;BME280;6053;51.382;6.768;2023-10-31T00:42:15;99507.31;;;13.84;71.26
11987;BME280;6053;51.382;6.768;2023-10-31T00:44:51;99500.41;;;12.97;73.27
11987;BME280;6053;51.382;6.768;2023-10-31T00:47:19;99506.06;;;12.65;72.73
11987;BME280;6053;51.382;6.768;2023-10-31T00:49:50;99514.13;;;13.49;75.14
11987;BME280;6053;51.382;6.768;2023-10-31T00:52:24;99523.94;;;12.78;73.42
11987;BME280;6053;51.382;6.768;2023-10-31T00:54:58;99518.75;;;13.09;74.76
11987;BME280;6053;51.382;6.768;2023-10-31T00:57:26;99528.81;;;12.83;71.69
11987;BME280;6053;51.382;6.768;2023-10-31T00:59:58;99531.91;;;13.57;71.54
11987;BME280;6053;51.382;6.768;2023-10-31T01:02:26;99527.53;;;13.07;70.64
11987;BME280;6053;51.382;6.768;2023-10-31T01:04:57;99539.94;;;13.41;70.79
11987;BME280;6053;51.382;6.768;2023-10-31T01:07:27;99543.75;;;13.58;73.60
11987;BME280;6053;51.382;6.768;2023-10-31T01:09:55;99543.97;;;13.25;72.62
11987;BME280;6053;51.382;6.768;2023-10-31T01:12:26;99560.69;;;13.16;75.89
11987;BME280;6053;51.382;6.768;2023-10-31T01:15:00;99547.69;;;13.85;72.65
11987;BME280;6053;51.382;6.768;2023-10-31T01:17:29;99565.06;;;14.74;66.52
11987;BME280;6053;51.382;6.768;2023-10-31T01:20:08;99558.19;;;13.96;69.16
11987;BME280;6053;51.382;6.768;2023-10-31T01:22:40;99575.09;;;13.64;69.83
11987;BME280;6053;51.382;6.768;2023-10-31T01:25:09;99566.97;;;12.27;74.19
11987;BME280;6053;51.382;6.768;2023-10-31T01:27:37;99565.31;;;12.82;73.23
11987;BME280;6053;51.382;6.768;2023-10-31T01:30:14;99571.13;;;13.21;72.17
11987;BME280;6053;51.382;6.768;2023-10-31T01:32:42;99565.53;;;13.79;71.11
11987;BME280;6053;51.382;6.768;2023-10-31T01:35:11;99573.81;;;13.16;71.04
11987;BME280;6053;51.382;6.768;2023-10-31T01:37:44;99573.97;;;13.70;71.76
11987;BME280;6053;51.382;6.768;2023-10-31T01:40:26;99571.69;;;13.54;71.11
11987;BME280;6053;51.382;6.768;2023-10-31T01:42:57;99590.25;;;13.19;71.41
11987;BME280;6053;51.382;6.768;2023-10-31T01:45:28;99586.91;;;13.44;71.66
11987;BME280;6053;51.382;6.768;2023-10-31T01:47:57;99585.28;;;13.38;72.25
11987;BME280;6053;51.382;6.768;2023-10-31T01:50:32;99590.06;;;12.85;73.97
11987;BME280;6053;51.382;6.768;2023-10-31T01:53:01;99595.59;;;14.00;71.83
11987;BME280;6053;51.382;6.768;2023-10-31T01:55:30;99600.59;;;13.96;71.89
11987;BME280;6053;51.382;6.768;2023-10-31T01:58:01;99601.00;;;13.75;72.11
11987;BME280;6053;51.382;6.768;2023-10-31T02:00:31;99602.28;;;13.45;73.12
11987;BME280;6053;51.382;6.768;2023-10-31T02:02:59;99597.03;;;13.18;72.80
11987;BME280;6053;51.382;6.768;2023-10-31T02:05:28;99602.22;;;13.40;73.89
11987;BME280;6053;51.382;6.768;2023-10-31T02:08:00;99596.94;;;13.27;75.03
11987;BME280;6053;51.382;6.768;2023-10-31T02:10:28;99597.41;;;13.55;72.88
11987;BME280;6053;51.382;6.768;2023-10-31T02:12:57;99592.44;;;13.30;75.15
11987;BME280;6053;51.382;6.768;2023-10-31T02:15:25;99590.41;;;13.30;71.63
11987;BME280;6053;51.382;6.768;2023-10-31T02:17:54;99599.19;;;13.00;72.51
11987;BME280;6053;51.382;6.768;2023-10-31T02:20:29;99588.31;;;12.97;72.94
11987;BME280;6053;51.382;6.768;2023-10-31T02:23:04;99591.94;;;13.02;74.66
11987;BME280;6053;51.382;6.768;2023-10-31T02:25:42;99595.78;;;12.67;75.31
11987;BME280;6053;51.382;6.768;2023-10-31T02:28:10;99600.56;;;13.62;72.86
11987;BME280;6053;51.382;6.768;2023-10-31T02:30:39;99593.66;;;13.72;73.96
11987;BME280;6053;51.382;6.768;2023-10-31T02:33:07;99596.34;;;13.09;73.29
11987;BME280;6053;51.382;6.768;2023-10-31T02:35:35;99592.75;;;14.29;69.96
11987;BME280;6053;51.382;6.768;2023-10-31T02:38:05;99599.50;;;13.60;71.48
11987;BME280;6053;51.382;6.768;2023-10-31T02:40:34;99594.00;;;13.94;70.76
11987;BME280;6053;51.382;6.768;2023-10-31T02:43:06;99595.59;;;13.52;71.53
11987;BME280;6053;51.382;6.768;2023-10-31T02:45:34;99588.06;;;14.01;71.86
11987;BME280;6053;51.382;6.768;2023-10-31T02:48:06;99588.59;;;14.05;70.90
11987;BME280;6053;51.382;6.768;2023-10-31T02:50:36;99595.19;;;13.01;72.76
11987;BME280;6053;51.382;6.768;2023-10-31T02:53:05;99600.19;;;13.40;72.11
11987;BME280;6053;51.382;6.768;2023-10-31T02:55:40;99588.97;;;13.78;71.17
11987;BME280;6053;51.382;6.768;2023-10-31T02:58:11;99593.72;;;13.77;70.82
11987;BME280;6053;51.382;6.768;2023-10-31T03:00:39;99593.75;;;13.63;71.18
11987;BME280;6053;51.382;6.768;2023-10-31T03:03:13;99599.50;;;13.16;73.18
11987;BME280;6053;51.382;6.768;2023-10-31T03:05:42;99596.56;;;13.34;70.95
11987;BME280;6053;51.382;6.768;2023-10-31T03:08:14;99604.97;;;13.11;75.00
11987;BME280;6053;51.382;6.768;2023-10-31T03:10:54;99596.72;;;13.74;70.94
11987;BME280;6053;51.382;6.768;2023-10-31T03:13:22;99604.78;;;13.43;71.16
11987;BME280;6053;51.382;6.768;2023-10-31T03:15:54;99609.59;;;12.91;74.63
11987;BME280;6053;51.382;6.768;2023-10-31T03:18:22;99604.59;;;13.47;71.13
11987;BME280;6053;51.382;6.768;2023-10-31T03:20:56;99610.69;;;13.51;73.67
11987;BME280;6053;51.382;6.768;2023-10-31T03:23:26;99609.13;;;12.92;74.56
11987;BME280;6053;51.382;6.768;2023-10-31T03:25:57;99612.09;;;13.75;73.31
11987;BME280;6053;51.382;6.768;2023-10-31T03:28:28;99615.66;;;13.75;72.78
11987;BME280;6053;51.382;6.768;2023-10-31T03:30:57;99612.38;;;13.05;75.00
11987;BME280;6053;51.382;6.768;2023-10-31T03:33:25;99624.16;;;12.30;74.86
11987;BME280;6053;51.382;6.768;2023-10-31T03:35:54;99617.47;;;12.83;76.60
11987;BME280;6053;51.382;6.768;2023-10-31T03:38:22;99614.56;;;12.17;75.40
11987;BME280;6053;51.382;6.768;2023-10-31T03:40:58;99627.53;;;13.47;75.12
11987;BME280;6053;51.382;6.768;2023-10-31T03:43:30;99622.03;;;12.95;73.64
11987;BME280;6053;51.382;6.768;2023-10-31T03:46:06;99627.31;;;13.07;75.91
11987;BME280;6053;51.382;6.768;2023-10-31T03:48:34;99627.88;;;12.50;76.60
11987;BME280;6053;51.382;6.768;2023-10-31T03:51:03;99628.41;;;12.40;76.50
11987;BME280;6053;51.382;6.768;2023-10-31T03:53:32;99633.81;;;12.34;77.98
11987;BME280;6053;51.382;6.768;2023-10-31T03:56:02;99636.25;;;13.26;75.12
11987;BME280;6053;51.382;6.768;2023-10-31T03:58:40;99632.38;;;13.23;73.62
11987;BME280;6053;51.382;6.768;2023-10-31T04:01:15;99635.84;;;13.47;73.21
11987;BME280;6053;51.382;6.768;2023-10-31T04:03:44;99646.34;;;12.21;77.71
11987;BME280;6053;51.382;6.768;2023-10-31T04:06:18;99644.94;;;13.19;75.28
11987;BME280;6053;51.382;6.768;2023-10-31T04:08:47;99652.28;;;12.61;76.37
11987;BME280;6053;51.382;6.768;2023-10-31T04:11:31;99661.69;;;12.31;79.03
11987;BME280;6053;51.382;6.768;2023-10-31T04:14:05;99650.09;;;13.26;74.61
11987;BME280;6053;51.382;6.768;2023-10-31T04:16:40;99660.31;;;12.26;76.50
11987;BME280;6053;51.382;6.768;2023-10-31T04:19:12;99670.44;;;12.38;76.92
11987;BME280;6053;51.382;6.768;2023-10-31T04:21:40;99658.94;;;12.78;75.97
11987;BME280;6053;51.382;6.768;2023-10-31T04:24:15;99662.59;;;12.84;76.59
11987;BME280;6053;51.382;6.768;2023-10-31T04:26:47;99675.56;;;12.78;75.30
11987;BME280;6053;51.382;6.768;2023-10-31T04:29:15;99673.41;;;12.26;77.25
11987;BME280;6053;51.382;6.768;2023-10-31T04:31:47;99675.66;;;11.54;80.05
11987;BME280;6053;51.382;6.768;2023-10-31T04:34:15;99677.06;;;12.32;77.40
11987;BME280;6053;51.382;6.768;2023-10-31T04:36:43;99682.09;;;12.66;77.26
11987;BME280;6053;51.382;6.768;2023-10-31T04:39:14;99680.78;;;13.37;73.81
11987;BME280;6053;51.382;6.768;2023-10-31T04:41:42;99684.81;;;12.51;77.13
11987;BME280;6053;51.382;6.768;2023-10-31T04:44:12;99691.09;;;12.52;77.16
11987;BME280;6053;51.382;6.768;2023-10-31T04:46:40;99684.22;;;12.71;77.58
11987;BME280;6053;51.382;6.768;2023-10-31T04:49:14;99699.69;;;12.30;78.94
11987;BME280;6053;51.382;6.768;2023-10-31T04:51:43;99698.59;;;13.07;75.10
11987;BME280;6053;51.382;6.768;2023-10-31T04:54:11;99695.22;;;12.80;76.24
11987;BME280;6053;51.382;6.768;2023-10-31T04:56:40;99698.47;;;12.78;76.71
11987;BME280;6053;51.382;6.768;2023-10-31T04:59:08;99704.81;;;12.46;76.41
11987;BME280;6053;51.382;6.768;2023-10-31T05:01:38;99696.59;;;12.61;76.71
11987;BME280;6053;51.382;6.768;2023-10-31T05:04:06;99705.56;;;13.02;75.46
11987;BME280;6053;51.382;6.768;2023-10-31T05:06:39;99703.41;;;13.06;74.54
11987;BME280;6053;51.382;6.768;2023-10-31T05:09:08;99704.81;;;12.79;75.79
11987;BME280;6053;51.382;6.768;2023-10-31T05:11:38;99709.31;;;12.99;76.18
11987;BME280;6053;51.382;6.768;2023-10-31T05:14:10;99719.44;;;13.40;74.76
11987;BME280;6053;51.382;6.768;2023-10-31T05:16:43;99722.88;;;13.35;74.57
11987;BME280;6053;51.382;6.768;2023-10-31T05:19:11;99719.47;;;12.70;75.22
11987;BME280;6053;51.382;6.768;2023-10-31T05:21:40;99724.28;;;12.84;75.79
11987;BME280;6053;51.382;6.768;2023-10-31T05:24:14;99725.44;;;12.78;77.03
11987;BME280;6053;51.382;6.768;2023-10-31T05:26:42;99728.78;;;13.05;76.03
11987;BME280;6053;51.382;6.768;2023-10-31T05:29:11;99731.50;;;13.14;74.33
11987;BME280;6053;51.382;6.768;2023-10-31T05:31:50;99739.25;;;13.48;74.20
11987;BME280;6053;51.382;6.768;2023-10-31T05:34:18;99742.03;;;13.10;74.21
11987;BME280;6053;51.382;6.768;2023-10-31T05:36:47;99737.66;;;12.62;76.13
11987;BME280;6053;51.382;6.768;2023-10-31T05:39:19;99752.06;;;12.75;76.08
11987;BME280;6053;51.382;6.768;2023-10-31T05:41:47;99754.25;;;12.71;75.88
11987;BME280;6053;51.382;6.768;2023-10-31T05:44:15;99747.63;;;12.45;76.45
11987;BME280;6053;51.382;6.768;2023-10-31T05:46:51;99754.19;;;12.57;76.18
11987;BME280;6053;51.382;6.768;2023-10-31T05:49:23;99755.91;;;12.78;76.62
11987;BME280;6053;51.382;6.768;2023-10-31T05:51:51;99763.91;;;12.43;76.75
11987;BME280;6053;51.382;6.768;2023-10-31T05:54:22;99760.81;;;12.00;77.25
11987;BME280;6053;51.382;6.768;2023-10-31T05:56:52;99766.53;;;12.47;77.38
11987;BME280;6053;51.382;6.768;2023-10-31T05:59:21;99763.88;;;12.85;75.64
11987;BME280;6053;51.382;6.768;2023-10-31T06:01:49;99774.06;;;13.11;74.94
11987;BME280;6053;51.382;6.768;2023-10-31T06:04:22;99774.91;;;12.94;73.97
11987;BME280;6053;51.382;6.768;2023-10-31T06:06:51;99779.09;;;12.16;75.89
11987;BME280;6053;51.382;6.768;2023-10-31T06:09:20;99784.00;;;12.20;77.49
11987;BME280;6053;51.382;6.768;2023-10-31T06:11:48;99786.41;;;11.68;78.72
11987;BME280;6053;51.382;6.768;2023-10-31T06:14:16;99781.56;;;12.05;75.62
11987;BME280;6053;51.382;6.768;2023-10-31T06:16:45;99775.22;;;12.63;75.77
11987;BME280;6053;51.382;6.768;2023-10-31T06:19:16;99786.91;;;13.23;73.07
11987;BME280;6053;51.382;6.768;2023-10-31T06:21:49;99794.09;;;12.74;74.72
11987;BME280;6053;51.382;6.768;2023-10-31T06:24:26;99800.63;;;12.94;73.85
11987;BME280;6053;51.382;6.768;2023-10-31T06:26:54;99804.13;;;12.62;75.12
11987;BME280;6053;51.382;6.768;2023-10-31T06:29:22;99802.53;;;12.88;73.51
11987;BME280;6053;51.382;6.768;2023-10-31T06:31:54;99819.28;;;12.52;76.20
11987;BME280;6053;51.382;6.768;2023-10-31T06:34:34;99827.31;;;13.15;75.26
11987;BME280;6053;51.382;6.768;2023-10-31T06:37:06;99816.28;;;13.67;71.37
11987;BME280;6053;51.382;6.768;2023-10-31T06:39:44;99831.06;;;13.50;72.21
11987;BME280;6053;51.382;6.768;2023-10-31T06:42:14;99827.50;;;13.73;72.70
11987;BME280;6053;51.382;6.768;2023-10-31T06:44:46;99839.41;;;13.26;73.09
11987;BME280;6053;51.382;6.768;2023-10-31T06:47:14;99845.91;;;13.99;71.29
11987;BME280;6053;51.382;6.768;2023-10-31T06:49:43;99841.13;;;12.92;72.83
11987;BME280;6053;51.382;6.768;2023-10-31T06:52:18;99845.63;;;12.39;75.66
11987;BME280;6053;51.382;6.768;2023-10-31T06:54:46;99847.81;;;12.17;77.38
11987;BME280;6053;51.382;6.768;2023-10-31T06:57:14;99850.56;;;12.76;75.58
11987;BME280;6053;51.382;6.768;2023-10-31T06:59:46;99852.25;;;13.38;72.98
11987;BME280;6053;51.382;6.768;2023-10-31T07:02:14;99848.66;;;13.47;72.03
11987;BME280;6053;51.382;6.768;2023-10-31T07:04:43;99850.38;;;12.89;74.49
11987;BME280;6053;51.382;6.768;2023-10-31T07:07:11;99848.81;;;12.46;76.50
11987;BME280;6053;51.382;6.768;2023-10-31T07:09:41;99857.31;;;13.16;73.49
11987;BME280;6053;51.382;6.768;2023-10-31T07:12:09;99860.34;;;13.04;72.12
11987;BME280;6053;51.382;6.768;2023-10-31T07:14:37;99849.34;;;13.09;72.28
11987;BME280;6053;51.382;6.768;2023-10-31T07:17:14;99864.78;;;12.60;75.70
11987;BME280;6053;51.382;6.768;2023-10-31T07:19:42;99868.78;;;12.59;76.51
11987;BME280;6053;51.382;6.768;2023-10-31T07:22:14;99870.13;;;13.14;74.47
11987;BME280;6053;51.382;6.768;2023-10-31T07:24:46;99884.84;;;12.97;73.44
11987;BME280;6053;51.382;6.768;2023-10-31T07:27:18;99883.88;;;13.78;72.42
11987;BME280;6053;51.382;6.768;2023-10-31T07:29:50;99882.69;;;13.00;74.08
11987;BME280;6053;51.382;6.768;2023-10-31T07:32:18;99881.06;;;13.64;72.73
11987;BME280;6053;51.382;6.768;2023-10-31T07:34:46;99895.09;;;13.05;74.14
11987;BME280;6053;51.382;6.768;2023-10-31T07:37:18;99897.75;;;12.99;72.76
11987;BME280;6053;51.382;6.768;2023-10-31T07:39:50;99905.56;;;13.42;72.92
11987;BME280;6053;51.382;6.768;2023-10-31T07:42:18;99906.22;;;13.61;70.58
11987;BME280;6053;51.382;6.768;2023-10-31T07:44:49;99912.47;;;13.47;72.11
11987;BME280;6053;51.382;6.768;2023-10-31T07:47:18;99909.88;;;14.04;71.33
11987;BME280;6053;51.382;6.768;2023-10-31T07:49:46;99914.41;;;13.55;71.56
11987;BME280;6053;51.382;6.768;2023-10-31T07:52:15;99912.59;;;13.20;73.17
11987;BME280;6053;51.382;6.768;2023-10-31T07:54:53;99911.91;;;12.51;76.06
11987;BME280;6053;51.382;6.768;2023-10-31T07:57:22;99918.81;;;12.47;75.46
11987;BME280;6053;51.382;6.768;2023-10-31T07:59:53;99914.06;;;13.06;74.28
11987;BME280;6053;51.382;6.768;2023-10-31T08:02:24;99909.59;;;13.00;72.29
11987;BME280;6053;51.382;6.768;2023-10-31T08:04:52;99914.19;;;13.44;72.53
11987;BME280;6053;51.382;6.768;2023-10-31T08:07:20;99917.53;;;13.72;71.62
11987;BME280;6053;51.382;6.768;2023-10-31T08:09:50;99921.66;;;12.79;72.27
11987;BME280;6053;51.382;6.768;2023-10-31T08:12:20;99924.44;;;12.88;72.88
11987;BME280;6053;51.382;6.768;2023-10-31T08:14:48;99931.63;;;13.36;73.49
11987;BME280;6053;51.382;6.768;2023-10-31T08:17:17;99931.63;;;13.03;73.31
11987;BME280;6053;51.382;6.768;2023-10-31T08:19:54;99926.06;;;12.44;73.55
11987;BME280;6053;51.382;6.768;2023-10-31T08:22:25;99931.06;;;12.73;74.89
11987;BME280;6053;51.382;6.768;2023-10-31T08:24:56;99923.75;;;13.11;71.89
11987;BME280;6053;51.382;6.768;2023-10-31T08:27:28;99924.63;;;14.77;68.27
11987;BME280;6053;51.382;6.768;2023-10-31T08:30:03;99923.91;;;13.40;69.96
11987;BME280;6053;51.382;6.768;2023-10-31T08:32:32;99928.41;;;12.96;70.56
11987;BME280;6053;51.382;6.768;2023-10-31T08:35:08;99929.50;;;13.77;70.25
11987;BME280;6053;51.382;6.768;2023-10-31T08:37:37;99923.22;;;14.52;67.50
11987;BME280;6053;51.382;6.768;2023-10-31T08:40:08;99937.44;;;13.14;69.64
11987;BME280;6053;51.382;6.768;2023-10-31T08:42:41;99935.28;;;13.88;70.86
11987;BME280;6053;51.382;6.768;2023-10-31T08:45:10;99939.75;;;14.09;69.53
11987;BME280;6053;51.382;6.768;2023-10-31T08:47:38;99938.13;;;13.33;69.95
11987;BME280;6053;51.382;6.768;2023-10-31T08:50:07;99952.16;;;13.99;68.89
11987;BME280;6053;51.382;6.768;2023-10-31T08:52:42;99949.41;;;13.53;70.92
11987;BME280;6053;51.382;6.768;2023-10-31T08:55:15;99957.44;;;13.74;68.74
11987;BME280;6053;51.382;6.768;2023-10-31T08:57:45;99959.16;;;14.18;68.71
11987;BME280;6053;51.382;6.768;2023-10-31T09:00:17;99958.13;;;14.07;69.06
11987;BME280;6053;51.382;6.768;2023-10-31T09:02:47;99965.53;;;13.63;71.59
11987;BME280;6053;51.382;6.768;2023-10-31T09:05:15;99960.38;;;15.13;66.07
11987;BME280;6053;51.382;6.768;2023-10-31T09:07:44;99974.50;;;14.28;67.74
11987;BME280;6053;51.382;6.768;2023-10-31T09:10:13;99968.19;;;14.28;69.00
11987;BME280;6053;51.382;6.768;2023-10-31T09:12:41;99977.00;;;14.41;68.76
11987;BME280;6053;51.382;6.768;2023-10-31T09:15:11;99980.84;;;13.17;71.78
11987;BME280;6053;51.382;6.768;2023-10-31T09:17:47;99989.03;;;14.23;68.91
11987;BME280;6053;51.382;6.768;2023-10-31T09:20:18;99994.78;;;14.57;68.00
11987;BME280;6053;51.382;6.768;2023-10-31T09:22:46;99999.72;;;13.92;67.67
11987;BME280;6053;51.382;6.768;2023-10-31T09:25:15;100008.97;;;14.22;69.41
11987;BME280;6053;51.382;6.768;2023-10-31T09:27:45;100011.19;;;14.32;69.06
11987;BME280;6053;51.382;6.768;2023-10-31T09:30:15;100017.97;;;13.52;70.21
11987;BME280;6053;51.382;6.768;2023-10-31T09:32:46;100022.00;;;14.07;69.19
11987;BME280;6053;51.382;6.768;2023-10-31T09:35:14;100024.56;;;14.19;67.85
11987;BME280;6053;51.382;6.768;2023-10-31T09:37:43;100017.75;;;13.65;69.11
11987;BME280;6053;51.382;6.768;2023-10-31T09:40:30;100037.25;;;12.97;70.74
11987;BME280;6053;51.382;6.768;2023-10-31T09:42:58;100044.88;;;13.70;71.79
11987;BME280;6053;51.382;6.768;2023-10-31T09:45:28;100052.03;;;14.17;68.24
11987;BME280;6053;51.382;6.768;2023-10-31T09:48:01;100045.28;;;13.45;70.15
11987;BME280;6053;51.382;6.768;2023-10-31T09:50:30;100056.75;;;13.20;72.57
11987;BME280;6053;51.382;6.768;2023-10-31T09:53:00;100051.91;;;12.52;72.02
11987;BME280;6053;51.382;6.768;2023-10-31T09:55:29;100059.03;;;14.04;69.39
11987;BME280;6053;51.382;6.768;2023-10-31T09:57:58;100058.59;;;13.73;68.46
11987;BME280;6053;51.382;6.768;2023-10-31T10:00:27;100069.72;;;13.05;73.24
11987;BME280;6053;51.382;6.768;2023-10-31T10:02:56;100082.75;;;13.31;70.29
11987;BME280;6053;51.382;6.768;2023-10-31T10:05:25;100087.41;;;13.25;70.03
11987;BME280;6053;51.382;6.768;2023-10-31T10:07:58;100080.69;;;12.64;73.51
11987;BME280;6053;51.382;6.768;2023-10-31T10:10:26;100076.50;;;12.86;71.21
11987;BME280;6053;51.382;6.768;2023-10-31T10:12:56;100088.22;;;13.08;70.69
11987;BME280;6053;51.382;6.768;2023-10-31T10:15:29;100090.44;;;14.42;68.36
11987;BME280;6053;51.382;6.768;2023-10-31T10:18:01;100093.69;;;14.08;68.19
11987;BME280;6053;51.382;6.768;2023-10-31T10:20:29;100105.03;;;14.52;66.99
11987;BME280;6053;51.382;6.768;2023-10-31T10:23:03;100102.03;;;14.41;67.20
11987;BME280;6053;51.382;6.768;2023-10-31T10:25:32;100097.31;;;14.32;66.74
11987;BME280;6053;51.382;6.768;2023-10-31T10:28:09;100099.13;;;14.03;68.76
11987;BME280;6053;51.382;6.768;2023-10-31T10:30:45;100106.59;;;14.52;67.47
11987;BME280;6053;51.382;6.768;2023-10-31T10:33:14;100112.97;;;14.82;66.22
11987;BME280;6053;51.382;6.768;2023-10-31T10:35:44;100112.78;;;14.85;65.51
11987;BME280;6053;51.382;6.768;2023-10-31T10:38:14;100117.84;;;14.26;65.24
11987;BME280;6053;51.382;6.768;2023-10-31T10:40:51;100119.56;;;13.91;68.48
11987;BME280;6053;51.382;6.768;2023-10-31T10:43:23;100134.28;;;14.38;67.75
11987;BME280;6053;51.382;6.768;2023-10-31T10:45:57;100125.94;;;14.15;66.99
11987;BME280;6053;51.382;6.768;2023-10-31T10:48:29;100127.38;;;14.34;64.83
11987;BME280;6053;51.382;6.768;2023-10-31T10:51:13;100128.38;;;14.45;66.60
11987;BME280;6053;51.382;6.768;2023-10-31T10:53:49;100129.66;;;13.71;65.98
11987;BME280;6053;51.382;6.768;2023-10-31T10:56:28;100125.66;;;14.13;66.94
11987;BME280;6053;51.382;6.768;2023-10-31T10:59:02;100124.59;;;14.10;65.70
11987;BME280;6053;51.382;6.768;2023-10-31T11:01:33;100122.47;;;14.52;65.21
11987;BME280;6053;51.382;6.768;2023-10-31T11:04:03;100123.72;;;14.74;64.26
11987;BME280;6053;51.382;6.768;2023-10-31T11:06:34;100120.19;;;14.27;65.68
11987;BME280;6053;51.382;6.768;2023-10-31T11:09:10;100128.25;;;15.24;64.38
11987;BME280;6053;51.382;6.768;2023-10-31T11:11:42;100134.41;;;14.20;64.62
11987;BME280;6053;51.382;6.768;2023-10-31T11:14:18;100133.47;;;14.70;65.94
11987;BME280;6053;51.382;6.768;2023-10-31T11:16:53;100123.22;;;14.76;66.20
11987;BME280;6053;51.382;6.768;2023-10-31T11:19:23;100124.69;;;14.86;65.35
11987;BME280;6053;51.382;6.768;2023-10-31T11:21:58;100125.66;;;14.36;66.61
11987;BME280;6053;51.382;6.768;2023-10-31T11:24:32;100131.50;;;13.73;65.32
11987;BME280;6053;51.382;6.768;2023-10-31T11:27:07;100126.69;;;13.83;66.94
11987;BME280;6053;51.382;6.768;2023-10-31T11:29:37;100129.13;;;13.90;66.68
11987;BME280;6053;51.382;6.768;2023-10-31T11:32:10;100132.59;;;14.64;66.25
11987;BME280;6053;51.382;6.768;2023-10-31T11:34:42;100136.75;;;14.36;62.91
11987;BME280;6053;51.382;6.768;2023-10-31T11:37:24;100135.47;;;15.07;64.00
11987;BME280;6053;51.382;6.768;2023-10-31T11:40:20;100134.41;;;15.19;61.19
11987;BME280;6053;51.382;6.768;2023-10-31T11:42:50;100139.97;;;14.44;66.05
11987;BME280;6053;51.382;6.768;2023-10-31T11:45:28;100146.31;;;14.67;64.94
11987;BME280;6053;51.382;6.768;2023-10-31T11:48:01;100136.59;;;15.01;63.15
11987;BME280;6053;51.382;6.768;2023-10-31T11:50:35;100144.66;;;14.38;62.63
11987;BME280;6053;51.382;6.768;2023-10-31T11:53:09;100131.47;;;14.24;63.78
11987;BME280;6053;51.382;6.768;2023-10-31T11:55:41;100134.19;;;14.56;62.81
11987;BME280;6053;51.382;6.768;2023-10-31T11:58:17;100134.38;;;13.88;63.25
11987;BME280;6053;51.382;6.768;2023-10-31T12:00:48;100136.97;;;14.94;64.96
11987;BME280;6053;51.382;6.768;2023-10-31T12:03:25;100149.88;;;14.03;64.33
11987;BME280;6053;51.382;6.768;2023-10-31T12:05:55;100146.50;;;13.99;63.48
11987;BME280;6053;51.382;6.768;2023-10-31T12:08:28;100159.06;;;14.51;63.98
11987;BME280;6053;51.382;6.768;2023-10-31T12:11:08;100159.13;;;14.65;63.13
11987;BME280;6053;51.382;6.768;2023-10-31T12:13:39;100161.91;;;15.26;61.68
11987;BME280;6053;51.382;6.768;2023-10-31T12:16:09;100158.50;;;14.84;61.90
11987;BME280;6053;51.382;6.768;2023-10-31T12:18:55;100159.31;;;15.37;59.29
11987;BME280;6053;51.382;6.768;2023-10-31T12:21:39;100163.66;;;15.52;59.99
11987;BME280;6053;51.382;6.768;2023-10-31T12:24:10;100158.16;;;16.01;59.44
11987;BME280;6053;51.382;6.768;2023-10-31T12:26:40;100159.03;;;15.35;61.33
11987;BME280;6053;51.382;6.768;2023-10-31T12:29:12;100156.41;;;15.17;61.47
11987;BME280;6053;51.382;6.768;2023-10-31T12:31:45;100165.28;;;15.44;59.57
11987;BME280;6053;51.382;6.768;2023-10-31T12:34:23;100165.19;;;15.39;60.21
11987;BME280;6053;51.382;6.768;2023-10-31T12:36:53;100165.84;;;15.34;59.87
11987;BME280;6053;51.382;6.768;2023-10-31T12:39:24;100169.06;;;15.18;61.45
11987;BME280;6053;51.382;6.768;2023-10-31T12:41:54;100164.72;;;15.55;62.21
11987;BME280;6053;51.382;6.768;2023-10-31T12:44:27;100169.00;;;15.27;61.26
11987;BME280;6053;51.382;6.768;2023-10-31T12:46:56;100170.19;;;15.49;61.27
11987;BME280;6053;51.382;6.768;2023-10-31T12:49:29;100170.25;;;15.03;61.75
11987;BME280;6053;51.382;6.768;2023-10-31T12:52:02;100171.31;;;15.05;62.95
11987;BME280;6053;51.382;6.768;2023-10-31T12:54:40;100162.16;;;15.14;61.65
11987;BME280;6053;51.382;6.768;2023-10-31T12:57:09;100164.31;;;14.95;62.19
11987;BME280;6053;51.382;6.768;2023-10-31T12:59:38;100159.53;;;15.77;61.90
11987;BME280;6053;51.382;6.768;2023-10-31T13:02:07;100162.78;;;14.94;62.96
11987;BME280;6053;51.382;6.768;2023-10-31T13:04:39;100172.16;;;14.97;63.37
11987;BME280;6053;51.382;6.768;2023-10-31T13:07:08;100179.19;;;14.69;63.36
11987;BME280;6053;51.382;6.768;2023-10-31T13:09:37;100172.16;;;14.82;63.64
11987;BME280;6053;51.382;6.768;2023-10-31T13:12:09;100180.69;;;14.93;62.72
11987;BME280;6053;51.382;6.768;2023-10-31T13:14:50;100167.84;;;14.96;61.15
11987;BME280;6053;51.382;6.768;2023-10-31T13:17:19;100169.75;;;14.43;62.30
11987;BME280;6053;51.382;6.768;2023-10-31T13:19:49;100175.88;;;14.94;61.54
11987;BME280;6053;51.382;6.768;2023-10-31T13:22:17;100172.22;;;14.88;61.70
11987;BME280;6053;51.382;6.768;2023-10-31T13:24:45;100175.03;;;14.64;62.48
11987;BME280;6053;51.382;6.768;2023-10-31T13:27:21;100173.47;;;15.10;62.02
11987;BME280;6053;51.382;6.768;2023-10-31T13:29:52;100162.69;;;14.01;62.79